Estación Meteorológica Peña el Pijo (Robertgarden) [ 05/30/17 13:02:32 CEST ]

Fecha Hora Presion(HPa) Temp (°C) Humedad % Rocio (°C) Viento ( m/s) Direccion Lluvia 1Hora(mm) Lluvia 24H(mm) LLuvia Total(mm)
2017-Mar-30 01:01:58 1016.800 6.2 72 1.5         1357.16
2017-Mar-30 02:01:43 1016.600 5.1 75 1.0         1357.16
2017-Mar-30 03:01:56 1016.200 4.8 77 1.1         1357.16
2017-Mar-30 04:01:51 1015.700 4.8 78 1.2         1357.16
2017-Mar-30 05:03:17 1015.300 4.3 80 1.2         1357.16
2017-Mar-30 06:01:59 1014.800 3.4 80 0.3         1357.16
2017-Mar-30 07:01:44 1014.500 2.6 81 -0.3         1357.16
2017-Mar-30 08:02:05 1014.800 2.4 82 -0.4         1357.16
2017-Mar-30 09:02:07 1015.300 3.4 84 0.9         1357.16
2017-Mar-30 10:01:42 1014.900 10.9 79 7.4         1357.16
2017-Mar-30 11:01:44 1014.800 17.8 51 7.5         1357.16
2017-Mar-30 12:01:46 1014.200 20.9 34 4.3         1357.16
2017-Mar-30 13:01:38 1013.800 19.4 34 3.0 0.1 ESE     1357.16
2017-Mar-30 14:01:42 1013.400 21.5 30 3.2         1357.16
2017-Mar-30 15:01:46 1013.100 21.3 29 2.5 3.7 SE     1357.16
2017-Mar-30 16:01:42 1012.700 19.8 31 2.1 2.0 ENE     1357.16
2017-Mar-30 17:01:46 1012.200 20.7 31 2.9         1357.16
2017-Mar-30 18:01:48 1012.600 19.4 33 2.6         1357.16
2017-Mar-30 19:01:48 1012.700 18.6 36 3.1         1357.16
2017-Mar-30 20:01:54 1013.000 16.3 40 2.7         1357.16
2017-Mar-30 21:01:40 1013.600 14.2 45 2.4 1.8 SSE     1357.16
2017-Mar-30 22:01:52 1014.300 12.2 51 2.3         1357.16
2017-Mar-30 23:01:37 1014.700 9.9 58 2.0         1357.16

Temperatura Máxima:21°    Temperatura Mínima:
Presión Máxima:1016.800 Hpa    Presión Mínima:1012.200 Hpa


Volver